Espadon — 3FYO5 — position and weather

sailwx.info

Track history (hours):
 
Tides and Currents Weather Stations Pressure Air Temp Water Temp Dewpoint Dewpoint Depression Visibility Wind Speed Wind Dir Waves Ship Positions

Espadon

Last reported at 2017-Nov-23 06:05 UTC. Time now 2017-Dec-13 18:59 UTC.
Position N 35°58' W 005°32'.
Warning: this ship's position is 20 days out of date.

Length 81 m; draft 4.4 m.

Type: Cargo ship. MMSI: 371512000.

Date/timePositionNaut miles runAvg speedWind from/ knotsBaromVisibWave heightAir tempDewpointWater temp
2017-Nov-23 06:05N 35°58' W 005°32'0 5.3
2017-Nov-23 06:00N 35°58' W 005°31'3 5.9
2017-Nov-23 05:28N 35°59' W 005°27'2 5.1
2017-Nov-23 05:00N 35°59' W 005°24'3 6.1
2017-Nov-23 04:30N 35°56' W 005°24'3 5.8
2017-Nov-23 04:00N 35°56' W 005°20'2 4.9
2017-Nov-23 03:30N 35°54' W 005°19'0 0.7
2017-Nov-23 03:00N 35°54' W 005°19'0 0.0
2017-Nov-23 02:30N 35°54' W 005°19'0 0.0
2017-Nov-23 02:00N 35°54' W 005°19'0 0.0
2017-Nov-23 01:30N 35°54' W 005°19'0 0.0
2017-Nov-23 01:00N 35°54' W 005°19'0 0.0
2017-Nov-23 00:30N 35°54' W 005°19'0 0.0
2017-Nov-23 00:00N 35°54' W 005°19'0 0.0
2017-Nov-22 23:30N 35°54' W 005°19'0 0.0
2017-Nov-22 23:00N 35°54' W 005°19'0 0.0
2017-Nov-22 22:30N 35°54' W 005°19'0 0.0
2017-Nov-22 22:00N 35°54' W 005°19'0 0.0
2017-Nov-22 21:30N 35°54' W 005°19'1 1.7
2017-Nov-22 21:01N 35°55' W 005°19'2 3.7
2017-Nov-22 20:31N 35°55' W 005°17'  
2017-Nov-14 00:39N 39°57' E 017°06'3 6.1
2017-Nov-14 00:07N 39°60' E 017°05'1 6.1
2017-Nov-14 00:00N 40°00' E 017°05'3 6.1
2017-Nov-13 23:30N 40°03' E 017°05'3 5.9
2017-Nov-13 23:00N 40°06' E 017°04'3 6.1
2017-Nov-13 22:30N 40°09' E 017°04'3 6.3
2017-Nov-13 22:00N 40°13' E 017°04'  
Track history (hours):
 
Tides and Currents Weather Stations Pressure Air Temp Water Temp Dewpoint Dewpoint Depression Visibility Wind Speed Wind Dir Waves Ship Positions

Espadon

Last reported at 2017-Nov-23 06:05 UTC. Time now 2017-Dec-13 18:59 UTC.
Position N 35°58' W 005°32'.
Warning: this ship's position is 20 days out of date.

Length 81 m; draft 4.4 m.

Type: Cargo ship. MMSI: 371512000.

Date/timePositionNaut miles runAvg speedWind from/ knotsBaromVisibWave heightAir tempDewpointWater temp
2017-Nov-23 06:05N 35°58' W 005°32'0 5.3
2017-Nov-23 06:00N 35°58' W 005°31'3 5.9
2017-Nov-23 05:28N 35°59' W 005°27'2 5.1
2017-Nov-23 05:00N 35°59' W 005°24'3 6.1
2017-Nov-23 04:30N 35°56' W 005°24'3 5.8
2017-Nov-23 04:00N 35°56' W 005°20'2 4.9
2017-Nov-23 03:30N 35°54' W 005°19'0 0.7
2017-Nov-23 03:00N 35°54' W 005°19'0 0.0
2017-Nov-23 02:30N 35°54' W 005°19'0 0.0
2017-Nov-23 02:00N 35°54' W 005°19'0 0.0
2017-Nov-23 01:30N 35°54' W 005°19'0 0.0
2017-Nov-23 01:00N 35°54' W 005°19'0 0.0
2017-Nov-23 00:30N 35°54' W 005°19'0 0.0
2017-Nov-23 00:00N 35°54' W 005°19'0 0.0
2017-Nov-22 23:30N 35°54' W 005°19'0 0.0
2017-Nov-22 23:00N 35°54' W 005°19'0 0.0
2017-Nov-22 22:30N 35°54' W 005°19'0 0.0
2017-Nov-22 22:00N 35°54' W 005°19'0 0.0
2017-Nov-22 21:30N 35°54' W 005°19'1 1.7
2017-Nov-22 21:01N 35°55' W 005°19'2 3.7
2017-Nov-22 20:31N 35°55' W 005°17'  
2017-Nov-14 00:39N 39°57' E 017°06'3 6.1
2017-Nov-14 00:07N 39°60' E 017°05'1 6.1
2017-Nov-14 00:00N 40°00' E 017°05'3 6.1
2017-Nov-13 23:30N 40°03' E 017°05'3 5.9
2017-Nov-13 23:00N 40°06' E 017°04'3 6.1
2017-Nov-13 22:30N 40°09' E 017°04'3 6.3
2017-Nov-13 22:00N 40°13' E 017°04'  

Dump ship's entire track history